Time;durP1;ratioP1;P1;durP2;ratioP2;P2;SDS_P1;SDS_P2;PMS_P1;PMS_P2;Temp;Humidity;BMP_temperature;BMP_pressure;BME280_temperature;BME280_humidity;BME280_pressure;Samples;Min_cycle;Max_cycle;Signal;HPM_P1;HPM_P2
2022/01/24 00:01:52;;;;;;;6.90;5.10;;;5.70;99.90;;;;;;4929078;29;20572;-79
2022/01/24 00:04:38;;;;;;;5.13;4.73;;;5.80;99.90;;;;;;4943081;29;20410;-80
2022/01/24 00:07:24;;;;;;;6.20;5.07;;;5.90;99.90;;;;;;4915949;29;20398;-79
2022/01/24 00:10:14;;;;;;;5.47;4.97;;;5.90;99.90;;;;;;4929238;29;20458;-79
2022/01/24 00:13:25;;;;;;;8.43;6.80;;;6.00;99.90;;;;;;4904602;29;20432;-80
2022/01/24 00:28:11;;;;;;;5.23;4.83;;;5.80;99.90;;;;;;5003370;28;20762;-80
2022/01/24 00:30:55;;;;;;;6.30;5.23;;;5.80;99.90;;;;;;5017082;28;20803;-79
2022/01/24 00:33:40;;;;;;;8.83;6.07;;;5.80;99.90;;;;;;5024360;28;20392;-79
2022/01/24 00:36:25;;;;;;;5.93;5.20;;;5.90;99.90;;;;;;5010737;28;20451;-80
2022/01/24 00:39:11;;;;;;;7.37;6.57;;;5.90;99.90;;;;;;4996742;28;20358;-79
2022/01/24 00:45:07;;;;;;;6.70;3.77;;;5.20;99.90;;;;;;4992156;28;20434;-80
2022/01/24 00:48:21;;;;;;;4.33;3.93;;;4.90;99.90;;;;;;4977112;28;20359;-81
2022/01/24 00:54:03;;;;;;;7.17;5.73;;;4.80;99.90;;;;;;4990356;28;20419;-80
2022/01/24 00:56:49;;;;;;;6.20;5.60;;;4.80;99.90;;;;;;4951933;28;20410;-80
2022/01/24 00:59:33;;;;;;;5.40;4.90;;;5.10;99.90;;;;;;4936835;29;20963;-80
2022/01/24 01:02:19;;;;;;;8.63;5.50;;;5.30;99.90;;;;;;4931304;29;20536;-80
2022/01/24 01:18:07;;;;;;;7.10;6.40;;;5.40;99.90;;;;;;4893047;29;20396;-77
2022/01/24 01:20:26;;;;;;;8.57;6.47;;;5.30;99.90;;;;;;4907305;29;20801;-80
2022/01/24 01:23:11;;;;;;;7.07;5.50;;;5.30;99.90;;;;;;4907447;29;20905;-80
2022/01/24 01:25:57;;;;;;;7.00;4.93;;;5.30;99.90;;;;;;4906921;29;20485;-80
2022/01/24 01:28:45;;;;;;;5.30;4.60;;;5.20;99.90;;;;;;4944439;29;20434;-80
2022/01/24 01:37:50;;;;;;;5.40;5.00;;;4.90;99.90;;;;;;4945602;29;20764;-80
2022/01/24 01:52:42;;;;;;;4.10;3.67;;;4.40;99.90;;;;;;4942335;29;20361;-80
2022/01/24 01:58:26;;;;;;;5.13;3.80;;;4.50;99.90;;;;;;4951607;29;20402;-80
2022/01/24 02:01:11;;;;;;;9.13;3.30;;;4.50;99.90;;;;;;4960610;28;20441;-80
2022/01/24 02:03:57;;;;;;;5.43;4.93;;;4.50;99.90;;;;;;4954461;28;20913;-80
2022/01/24 02:06:43;;;;;;;4.03;3.53;;;4.40;99.90;;;;;;4981949;28;20444;-79
2022/01/24 02:09:31;;;;;;;7.63;4.80;;;4.50;99.90;;;;;;4957143;28;20450;-77
2022/01/24 02:12:23;;;;;;;7.13;4.80;;;4.70;99.90;;;;;;4974916;28;20415;-77
2022/01/24 02:15:08;;;;;;;4.60;4.10;;;4.70;99.90;;;;;;4996300;28;20364;-77
2022/01/24 02:18:08;;;;;;;6.60;4.73;;;4.60;99.90;;;;;;5012805;28;20417;-80
2022/01/24 02:23:58;;;;;;;4.50;3.43;;;4.40;99.90;;;;;;5011821;28;20369;-79
2022/01/24 02:26:43;;;;;;;6.97;4.90;;;4.50;99.90;;;;;;4983169;28;20394;-80
2022/01/24 02:32:24;;;;;;;4.40;3.23;;;4.80;99.90;;;;;;4994127;28;20381;-80
2022/01/24 02:35:09;;;;;;;4.50;4.07;;;4.80;99.90;;;;;;5023060;28;20362;-80
2022/01/24 02:37:56;;;;;;;5.27;4.00;;;4.70;99.90;;;;;;4981260;28;20392;-80
2022/01/24 02:40:41;;;;;;;3.80;3.50;;;4.90;99.90;;;;;;5023589;28;20390;-80
2022/01/24 02:49:34;;;;;;;4.80;4.20;;;5.30;99.90;;;;;;5010787;28;20430;-80
2022/01/24 02:52:23;;;;;;;3.97;3.57;;;5.50;99.90;;;;;;4977422;28;20402;-79
2022/01/24 02:55:08;;;;;;;4.90;4.50;;;5.50;99.90;;;;;;4982782;28;20397;-79
2022/01/24 02:57:53;;;;;;;5.07;4.60;;;5.50;99.90;;;;;;4968418;28;20389;-79
2022/01/24 03:00:38;;;;;;;5.77;3.90;;;5.60;99.90;;;;;;4954390;28;20431;-80
2022/01/24 03:03:25;;;;;;;4.73;4.33;;;5.60;99.90;;;;;;4955082;28;20388;-79
2022/01/24 03:06:09;;;;;;;6.90;4.60;;;5.60;99.90;;;;;;4982495;28;20401;-79
2022/01/24 03:08:54;;;;;;;5.43;4.77;;;5.60;99.90;;;;;;4955317;28;20425;-79
2022/01/24 03:12:11;;;;;;;4.60;4.20;;;5.60;99.90;;;;;;4966505;28;20545;-80
2022/01/24 03:14:43;;;;;;;4.73;4.27;;;5.60;99.90;;;;;;4981255;28;20356;-80
2022/01/24 03:17:28;;;;;;;4.77;4.27;;;5.60;99.90;;;;;;4954500;28;20461;-80
2022/01/24 03:20:13;;;;;;;6.30;4.13;;;5.60;99.90;;;;;;4940623;28;20419;-79
2022/01/24 03:22:58;;;;;;;6.80;4.30;;;5.50;99.90;;;;;;4981079;28;20415;-80
2022/01/24 03:25:43;;;;;;;5.73;4.70;;;5.40;99.90;;;;;;4980797;28;20484;-79
2022/01/24 03:28:28;;;;;;;4.60;4.20;;;5.20;99.90;;;;;;4915595;29;20394;-79
2022/01/24 03:31:12;;;;;;;4.57;4.17;;;5.40;99.90;;;;;;4885807;29;20469;-80
2022/01/24 03:33:56;;;;;;;7.10;4.30;;;5.40;99.90;;;;;;4922613;29;20415;-79
2022/01/24 03:36:43;;;;;;;5.27;3.63;;;5.50;99.90;;;;;;4904311;29;20396;-79
2022/01/24 03:39:27;;;;;;;6.00;5.30;;;5.60;99.90;;;;;;4904837;29;20366;-80
2022/01/24 03:42:11;;;;;;;8.80;5.00;;;5.70;99.90;;;;;;4917550;29;20383;-79
2022/01/24 03:44:59;;;;;;;5.90;4.40;;;5.60;99.90;;;;;;4902380;29;20501;-79
2022/01/24 03:48:00;;;;;;;4.43;3.53;;;5.70;99.90;;;;;;4895842;29;20916;-79
2022/01/24 03:50:45;;;;;;;5.10;3.80;;;5.70;99.90;;;;;;4901111;29;20496;-80
2022/01/24 03:53:29;;;;;;;5.17;3.83;;;5.80;99.90;;;;;;4910371;29;20387;-79
2022/01/24 03:56:14;;;;;;;5.60;3.57;;;5.80;99.90;;;;;;4897289;29;20408;-80
2022/01/24 03:58:59;;;;;;;9.63;4.37;;;5.80;99.90;;;;;;4934477;28;20461;-79
2022/01/24 04:01:45;;;;;;;7.87;5.50;;;5.60;99.90;;;;;;4990037;28;20430;-80
2022/01/24 04:04:29;;;;;;;5.27;4.57;;;5.70;99.90;;;;;;4948780;29;20393;-79
2022/01/24 04:07:14;;;;;;;4.60;4.20;;;5.70;99.90;;;;;;4961468;29;20401;-79
2022/01/24 04:10:05;;;;;;;8.50;4.87;;;5.70;99.90;;;;;;4947805;29;20361;-80
2022/01/24 04:12:51;;;;;;;3.17;2.97;;;5.70;99.90;;;;;;4948333;29;20369;-79
2022/01/24 04:15:56;;;;;;;4.10;3.53;;;5.70;99.90;;;;;;4948570;29;20365;-80
2022/01/24 04:21:46;;;;;;;3.80;3.50;;;5.70;99.90;;;;;;4949514;28;20502;-80
2022/01/24 04:24:30;;;;;;;4.67;4.20;;;5.60;99.90;;;;;;4948805;29;20473;-80
2022/01/24 04:27:15;;;;;;;4.37;4.00;;;5.40;99.90;;;;;;4960848;29;20418;-79
2022/01/24 04:30:01;;;;;;;4.50;3.37;;;5.50;99.90;;;;;;4948479;29;20760;-80
2022/01/24 04:32:45;;;;;;;4.80;4.40;;;5.60;99.90;;;;;;4948107;29;20407;-79
2022/01/24 04:35:31;;;;;;;4.13;3.60;;;5.50;99.90;;;;;;4961536;29;20406;-80
2022/01/24 04:38:17;;;;;;;5.17;4.67;;;5.60;99.90;;;;;;4947847;29;20734;-80
2022/01/24 04:41:06;;;;;;;5.00;4.27;;;5.50;99.90;;;;;;4947539;29;20398;-79
2022/01/24 04:43:57;;;;;;;8.00;3.73;;;5.50;99.90;;;;;;4948808;29;20395;-80
2022/01/24 04:52:52;;;;;;;11.03;4.80;;;5.70;99.90;;;;;;4929912;29;20394;-80
2022/01/24 04:55:37;;;;;;;4.80;4.40;;;5.70;99.90;;;;;;4959616;29;20373;-79
2022/01/24 04:58:22;;;;;;;6.23;4.47;;;5.70;99.90;;;;;;4960967;28;20429;-80
2022/01/24 05:01:06;;;;;;;4.73;3.70;;;5.60;99.90;;;;;;4974518;28;20428;-80
2022/01/24 05:03:53;;;;;;;4.17;3.70;;;5.70;99.90;;;;;;4983300;28;20368;-79
2022/01/24 05:06:38;;;;;;;5.53;4.20;;;5.70;99.90;;;;;;4983175;28;21017;-80
2022/01/24 05:09:25;;;;;;;5.20;4.70;;;5.60;99.90;;;;;;4983091;28;20390;-80
2022/01/24 05:12:24;;;;;;;5.33;4.83;;;5.60;99.90;;;;;;4983352;28;20428;-80
2022/01/24 05:24:17;;;;;;;4.80;4.30;;;5.50;99.90;;;;;;4953156;29;20394;-80
2022/01/24 05:27:02;;;;;;;4.63;4.23;;;5.40;99.90;;;;;;4938755;29;20554;-79
2022/01/24 05:29:46;;;;;;;5.13;4.63;;;5.30;99.90;;;;;;4964190;29;20409;-79
2022/01/24 05:32:32;;;;;;;4.70;4.30;;;5.30;99.90;;;;;;4963787;28;20414;-80
2022/01/24 05:35:17;;;;;;;6.83;5.17;;;5.40;99.90;;;;;;4937512;29;20365;-80
2022/01/24 05:38:01;;;;;;;7.83;5.93;;;5.60;99.90;;;;;;4964273;28;20470;-80
2022/01/24 05:40:46;;;;;;;5.90;4.10;;;5.60;99.90;;;;;;4937433;29;20365;-80
2022/01/24 05:43:30;;;;;;;9.33;4.30;;;5.60;99.90;;;;;;4950892;29;20441;-80
2022/01/24 05:46:16;;;;;;;5.47;5.00;;;5.70;99.90;;;;;;4964108;29;20408;-79
2022/01/24 05:49:01;;;;;;;5.87;3.90;;;5.70;99.90;;;;;;4963933;28;20403;-80
2022/01/24 05:51:46;;;;;;;4.50;3.83;;;5.70;99.90;;;;;;4989943;28;20935;-79
2022/01/24 05:54:31;;;;;;;5.13;4.63;;;5.70;99.90;;;;;;4990113;28;20445;-79
2022/01/24 05:57:15;;;;;;;5.23;4.10;;;5.70;99.90;;;;;;4932147;28;20378;-80
2022/01/24 05:59:59;;;;;;;5.07;3.67;;;5.60;99.90;;;;;;4931622;29;20430;-79
2022/01/24 06:02:44;;;;;;;8.47;4.33;;;5.60;99.90;;;;;;4918663;29;20411;-80
2022/01/24 06:05:28;;;;;;;4.37;3.50;;;5.60;99.90;;;;;;4932625;29;20366;-79
2022/01/24 06:08:13;;;;;;;6.83;4.67;;;5.60;99.90;;;;;;4950466;29;20394;-79
2022/01/24 06:10:58;;;;;;;6.07;5.10;;;5.60;99.90;;;;;;4943790;29;20433;-80
2022/01/24 06:13:45;;;;;;;6.20;5.27;;;5.60;99.90;;;;;;4932703;28;20482;-80
2022/01/24 06:16:32;;;;;;;6.13;5.13;;;5.60;99.90;;;;;;4960885;29;20511;-79
2022/01/24 06:19:16;;;;;;;6.20;5.33;;;5.50;99.90;;;;;;4942270;28;20393;-80
2022/01/24 06:22:02;;;;;;;4.40;4.00;;;5.60;99.90;;;;;;4935768;29;20524;-79
2022/01/24 06:25:08;;;;;;;5.73;4.90;;;5.50;99.90;;;;;;4897909;29;20463;-79
2022/01/24 06:27:52;;;;;;;6.43;5.40;;;5.60;99.90;;;;;;4921607;29;20503;-79
2022/01/24 06:30:37;;;;;;;4.40;3.93;;;5.60;99.90;;;;;;4947623;29;20562;-79
2022/01/24 06:33:22;;;;;;;4.50;4.10;;;5.60;99.90;;;;;;4933296;29;20426;-79
2022/01/24 06:36:06;;;;;;;5.10;4.60;;;5.60;99.90;;;;;;4957674;29;20450;-80
2022/01/24 06:38:51;;;;;;;4.43;4.03;;;5.60;99.90;;;;;;4916560;29;20412;-79
2022/01/24 06:41:39;;;;;;;7.13;4.50;;;5.60;99.90;;;;;;4966531;28;20461;-79
2022/01/24 06:44:23;;;;;;;10.63;4.83;;;5.40;99.90;;;;;;4946261;29;20386;-79
2022/01/24 06:47:11;;;;;;;11.40;5.87;;;5.50;99.90;;;;;;4931709;29;20439;-79
2022/01/24 06:49:58;;;;;;;10.50;5.90;;;5.30;99.90;;;;;;4948813;29;20389;-79
2022/01/24 06:52:43;;;;;;;4.50;4.00;;;5.40;99.90;;;;;;4941876;28;20403;-80
2022/01/24 06:55:29;;;;;;;8.60;5.53;;;5.40;99.90;;;;;;4947038;29;20377;-79
2022/01/24 06:58:13;;;;;;;5.43;3.93;;;5.40;99.90;;;;;;4904826;29;20387;-79
2022/01/24 07:00:58;;;;;;;4.33;3.73;;;5.60;99.90;;;;;;4826212;29;20471;-79
2022/01/24 07:03:42;;;;;;;4.47;4.17;;;5.60;99.90;;;;;;4815570;29;20940;-79
2022/01/24 07:06:27;;;;;;;5.70;3.80;;;5.60;99.90;;;;;;4810450;29;20994;-79
2022/01/24 07:09:13;;;;;;;5.27;4.77;;;5.60;99.90;;;;;;4808912;29;20421;-79
2022/01/24 07:11:57;;;;;;;7.20;4.20;;;5.60;99.90;;;;;;4829904;29;20491;-79
2022/01/24 07:14:42;;;;;;;6.77;4.93;;;5.60;99.90;;;;;;4825606;29;20465;-79
2022/01/24 07:17:34;;;;;;;5.33;4.53;;;5.60;99.90;;;;;;4829479;29;20538;-79
2022/01/24 07:20:20;;;;;;;13.53;12.13;;;5.70;99.90;;;;;;4823005;29;20529;-79
2022/01/24 07:23:05;;;;;;;6.67;5.10;;;5.70;99.90;;;;;;4827191;29;20520;-79
2022/01/24 07:25:50;;;;;;;23.67;5.37;;;5.70;99.90;;;;;;4815136;29;20486;-79
2022/01/24 07:28:34;;;;;;;5.20;4.70;;;5.80;99.90;;;;;;4841533;29;20483;-79
2022/01/24 07:31:19;;;;;;;5.90;5.40;;;5.80;99.90;;;;;;4867631;29;20439;-79
2022/01/24 07:34:03;;;;;;;6.30;5.70;;;5.70;99.90;;;;;;4905284;28;20495;-77
2022/01/24 07:36:48;;;;;;;6.57;5.97;;;5.70;99.90;;;;;;4971703;28;20411;-78
2022/01/24 07:39:32;;;;;;;6.73;5.10;;;5.70;99.90;;;;;;4962864;28;20396;-78
2022/01/24 07:42:28;;;;;;;6.50;5.17;;;5.60;99.90;;;;;;4949092;28;20758;-78
2022/01/24 07:45:12;;;;;;;7.25;5.25;;;5.70;99.90;;;;;;4974742;28;20317;-78
2022/01/24 07:47:57;;;;;;;6.80;5.33;;;5.70;99.90;;;;;;4964402;28;20200;-78
2022/01/24 07:50:46;;;;;;;9.90;6.10;;;5.70;99.90;;;;;;4963736;28;20444;-79
2022/01/24 07:53:31;;;;;;;5.90;4.43;;;5.70;99.90;;;;;;4984075;28;20415;-78
2022/01/24 07:56:16;;;;;;;6.00;5.40;;;5.60;99.90;;;;;;4979128;28;20425;-78
2022/01/24 07:59:00;;;;;;;6.97;4.50;;;5.60;99.90;;;;;;4974676;28;20416;-78
2022/01/24 08:01:45;;;;;;;6.70;5.60;;;5.70;99.90;;;;;;5007349;28;20462;-78
2022/01/24 08:04:30;;;;;;;7.33;5.27;;;5.80;99.90;;;;;;4997400;28;20889;-78
2022/01/24 08:07:14;;;;;;;6.67;4.53;;;5.80;99.90;;;;;;5000917;28;20421;-78
2022/01/24 08:09:59;;;;;;;7.53;5.43;;;5.60;99.90;;;;;;5015128;28;20915;-79
2022/01/24 08:12:43;;;;;;;6.13;5.10;;;5.30;99.90;;;;;;5016242;28;20459;-79
2022/01/24 08:15:28;;;;;;;6.13;5.33;;;5.40;99.90;;;;;;4996243;28;20386;-78
2022/01/24 08:18:14;;;;;;;10.40;7.63;;;5.20;99.90;;;;;;4996029;28;20371;-78
2022/01/24 08:20:59;;;;;;;11.50;9.33;;;5.30;99.90;;;;;;4985771;28;20415;-77
2022/01/24 08:23:43;;;;;;;6.73;6.03;;;5.50;99.90;;;;;;5012889;28;20435;-78
2022/01/24 08:26:28;;;;;;;8.50;6.30;;;5.50;99.90;;;;;;4996927;28;20446;-78
2022/01/24 08:29:13;;;;;;;7.20;5.90;;;5.70;99.90;;;;;;4999204;28;20458;-78
2022/01/24 08:31:57;;;;;;;6.80;6.17;;;5.70;99.90;;;;;;4995951;28;20438;-78
2022/01/24 08:34:42;;;;;;;5.77;4.60;;;5.70;99.90;;;;;;5019652;28;20423;-79
2022/01/24 08:37:28;;;;;;;8.13;4.97;;;5.80;99.90;;;;;;5006107;28;20422;-80
2022/01/24 08:40:22;;;;;;;5.50;4.87;;;5.50;99.90;;;;;;5007251;28;20407;-78
2022/01/24 08:43:07;;;;;;;7.17;5.40;;;5.30;99.90;;;;;;5005090;28;20429;-79
2022/01/24 08:45:57;;;;;;;9.00;4.80;;;5.30;99.90;;;;;;5023552;28;20462;-79
2022/01/24 08:48:43;;;;;;;6.47;5.47;;;5.30;99.90;;;;;;4985008;28;20915;-78
2022/01/24 08:51:28;;;;;;;14.40;4.00;;;5.30;99.90;;;;;;5007949;28;20441;-78
2022/01/24 08:54:13;;;;;;;4.00;3.70;;;5.20;99.90;;;;;;5000682;28;20495;-78
2022/01/24 08:56:57;;;;;;;7.73;3.33;;;5.10;99.90;;;;;;5015490;28;20459;-78
2022/01/24 08:59:42;;;;;;;3.00;2.70;;;5.20;99.90;;;;;;5001025;28;20450;-78
2022/01/24 09:02:27;;;;;;;3.30;2.73;;;5.20;99.90;;;;;;4981662;28;21244;-78
2022/01/24 09:05:11;;;;;;;3.10;2.80;;;5.20;99.90;;;;;;4976037;28;20488;-78
2022/01/24 09:07:56;;;;;;;2.87;2.67;;;5.20;99.90;;;;;;4970807;28;20866;-78
2022/01/24 09:10:43;;;;;;;2.60;1.90;;;5.20;99.90;;;;;;4980454;28;20541;-77
2022/01/24 09:13:30;;;;;;;2.23;2.03;;;5.20;99.90;;;;;;4972480;28;20411;-77
2022/01/24 09:16:14;;;;;;;7.13;3.03;;;5.20;99.90;;;;;;4993825;28;20436;-77
2022/01/24 09:19:04;;;;;;;3.40;3.00;;;5.10;99.90;;;;;;5003276;28;20424;-78
2022/01/24 09:21:50;;;;;;;3.80;3.03;;;5.20;99.90;;;;;;4978195;28;20512;-78
2022/01/24 09:24:36;;;;;;;3.40;2.60;;;5.20;99.90;;;;;;4980882;28;20418;-81
2022/01/24 09:27:21;;;;;;;3.00;2.57;;;5.40;99.90;;;;;;4991002;28;20410;-79
2022/01/24 09:30:09;;;;;;;6.93;2.37;;;5.30;99.90;;;;;;4994719;28;20407;-78
2022/01/24 09:32:54;;;;;;;8.40;3.70;;;5.30;99.90;;;;;;4984246;28;20411;-78
2022/01/24 09:35:41;;;;;;;2.50;2.30;;;5.20;99.90;;;;;;4989935;28;20407;-79
2022/01/24 09:38:29;;;;;;;3.13;2.30;;;5.20;99.90;;;;;;4994532;28;20394;-77
2022/01/24 09:41:15;;;;;;;5.27;3.87;;;5.10;99.90;;;;;;5013159;28;20490;-80
2022/01/24 09:43:59;;;;;;;2.70;2.50;;;5.10;99.90;;;;;;4959783;28;20414;-80
2022/01/24 09:46:45;;;;;;;3.17;2.90;;;5.10;99.90;;;;;;4993551;28;20412;-80
2022/01/24 09:49:33;;;;;;;4.93;2.23;;;5.30;99.90;;;;;;4983330;28;20405;-80
2022/01/24 09:52:19;;;;;;;4.07;3.70;;;5.40;99.90;;;;;;4985685;28;20511;-80
2022/01/24 09:55:04;;;;;;;2.70;2.50;;;5.30;99.90;;;;;;4985177;28;20475;-79
2022/01/24 09:57:50;;;;;;;2.90;2.70;;;5.30;99.90;;;;;;4987041;28;20466;-80
2022/01/24 10:00:34;;;;;;;5.03;2.10;;;5.30;99.90;;;;;;5002043;28;20826;-80
2022/01/24 10:03:19;;;;;;;2.17;1.97;;;5.10;99.90;;;;;;5004427;28;20423;-80
2022/01/24 10:06:04;;;;;;;3.27;2.53;;;5.10;99.90;;;;;;4995936;28;20788;-80
2022/01/24 10:08:49;;;;;;;2.10;2.00;;;5.20;99.90;;;;;;4987826;28;20472;-80
2022/01/24 10:11:34;;;;;;;2.43;2.23;;;5.10;99.90;;;;;;5009157;28;20512;-80
2022/01/24 10:17:33;;;;;;;2.63;2.43;;;5.20;99.90;;;;;;4983025;28;20507;-80
2022/01/24 10:20:23;;;;;;;2.20;2.00;;;5.30;99.90;;;;;;4984409;28;20462;-78
2022/01/24 10:23:26;;;;;;;2.87;2.30;;;5.10;99.90;;;;;;5006670;28;20475;-79
2022/01/24 10:26:11;;;;;;;2.50;2.30;;;5.00;99.90;;;;;;4991639;28;20392;-79
2022/01/24 10:28:55;;;;;;;5.50;2.50;;;5.10;99.90;;;;;;4990447;28;20435;-79
2022/01/24 10:31:50;;;;;;;2.87;2.67;;;5.30;99.90;;;;;;4984846;28;20491;-80
2022/01/24 10:34:36;;;;;;;4.40;2.37;;;5.20;99.90;;;;;;4967003;28;20386;-80
2022/01/24 10:37:23;;;;;;;2.50;2.30;;;5.40;99.90;;;;;;4976595;28;20934;-80
2022/01/24 10:40:19;;;;;;;2.60;1.93;;;5.20;99.90;;;;;;4988228;28;20391;-79
2022/01/24 10:43:22;;;;;;;3.43;2.00;;;5.20;99.90;;;;;;4981376;28;20450;-79
2022/01/24 10:46:09;;;;;;;2.73;2.50;;;5.20;99.90;;;;;;5007587;28;20447;-79
2022/01/24 10:49:06;;;;;;;3.20;2.90;;;5.30;99.90;;;;;;4995369;28;20444;-80
2022/01/24 10:51:53;;;;;;;2.30;2.10;;;5.20;99.90;;;;;;5008553;28;20480;-80
2022/01/24 10:54:37;;;;;;;3.07;2.20;;;5.10;99.90;;;;;;4992667;28;20448;-80
2022/01/24 10:57:25;;;;;;;2.40;1.90;;;5.10;99.90;;;;;;5008292;28;20510;-79
2022/01/24 11:00:14;;;;;;;4.83;2.27;;;5.10;99.90;;;;;;4988377;28;20471;-80
2022/01/24 11:03:00;;;;;;;3.83;2.20;;;5.20;99.90;;;;;;5011270;28;20409;-80
2022/01/24 11:05:46;;;;;;;3.27;1.93;;;5.20;99.90;;;;;;5011120;28;20392;-79
2022/01/24 11:08:31;;;;;;;1.50;1.40;;;5.20;99.90;;;;;;4981495;28;20439;-80
2022/01/24 11:11:15;;;;;;;4.80;2.50;;;5.20;99.90;;;;;;5013827;28;20563;-80
2022/01/24 11:14:02;;;;;;;3.47;2.90;;;5.30;99.90;;;;;;4986572;28;20423;-80
2022/01/24 11:16:49;;;;;;;2.83;2.57;;;5.40;99.90;;;;;;4977700;28;20507;-82
2022/01/24 11:19:42;;;;;;;3.20;2.90;;;5.50;99.90;;;;;;5002297;28;20444;-82
2022/01/24 11:22:29;;;;;;;2.33;2.13;;;5.40;99.90;;;;;;4996981;28;20836;-81
2022/01/24 11:25:14;;;;;;;3.93;1.77;;;5.50;99.90;;;;;;4962019;28;20469;-82
2022/01/24 11:27:59;;;;;;;3.03;2.73;;;5.50;99.90;;;;;;4995887;28;20478;-82
2022/01/24 11:30:49;;;;;;;2.03;1.93;;;5.30;99.90;;;;;;4984633;28;20446;-82
2022/01/24 11:33:38;;;;;;;8.33;3.10;;;5.40;99.90;;;;;;5002362;28;20440;-82
2022/01/24 11:36:37;;;;;;;5.07;2.67;;;5.30;99.90;;;;;;5003066;28;20398;-83
2022/01/24 11:39:23;;;;;;;2.70;2.50;;;5.20;99.90;;;;;;4985773;28;20431;-82
2022/01/24 11:42:08;;;;;;;3.13;2.30;;;5.10;99.90;;;;;;4981756;28;20489;-82
2022/01/24 11:44:52;;;;;;;5.43;2.70;;;5.20;99.90;;;;;;5002621;28;20881;-81
2022/01/24 11:47:37;;;;;;;2.53;2.27;;;5.20;99.90;;;;;;4998061;28;20402;-82
2022/01/24 11:50:28;;;;;;;3.00;2.57;;;5.30;99.90;;;;;;4992822;28;20447;-82
2022/01/24 11:53:23;;;;;;;2.67;2.47;;;5.30;99.90;;;;;;4987649;28;20482;-82
2022/01/24 11:56:29;;;;;;;3.80;2.73;;;5.30;99.90;;;;;;5009015;28;20486;-80
2022/01/24 11:59:22;;;;;;;4.60;2.83;;;5.50;99.90;;;;;;4996113;28;20461;-82
2022/01/24 12:02:09;;;;;;;2.27;2.07;;;5.30;99.90;;;;;;5006161;28;20590;-82
2022/01/24 12:05:08;;;;;;;3.13;2.50;;;5.20;99.90;;;;;;5010854;28;20414;-81
2022/01/24 12:07:56;;;;;;;4.90;4.30;;;5.20;99.90;;;;;;4994893;28;20456;-83
2022/01/24 12:10:46;;;;;;;5.13;3.10;;;5.30;99.90;;;;;;5025866;28;20454;-82
2022/01/24 12:13:43;;;;;;;4.80;3.23;;;5.20;99.90;;;;;;5011427;28;20440;-81
2022/01/24 12:16:43;;;;;;;5.93;3.17;;;5.20;99.90;;;;;;4984488;28;20469;-83
2022/01/24 12:19:31;;;;;;;12.87;4.00;;;5.00;99.90;;;;;;5012743;28;20471;-82
2022/01/24 12:22:33;;;;;;;4.13;3.83;;;5.10;99.90;;;;;;5020582;28;20497;-80
2022/01/24 12:25:54;;;;;;;6.13;3.30;;;5.10;99.90;;;;;;5006616;28;20413;-82
2022/01/24 12:28:59;;;;;;;4.20;3.73;;;5.10;99.90;;;;;;5016973;28;20431;-80
2022/01/24 12:31:47;;;;;;;3.90;3.20;;;5.10;99.90;;;;;;4980229;28;20506;-80
2022/01/24 12:34:39;;;;;;;4.53;4.07;;;5.10;99.90;;;;;;5006256;28;20394;-79
2022/01/24 12:37:30;;;;;;;5.77;4.60;;;5.10;99.90;;;;;;5019743;28;20463;-81
2022/01/24 12:40:27;;;;;;;5.60;4.00;;;5.10;99.90;;;;;;4996513;28;20429;-79
2022/01/24 12:43:19;;;;;;;5.17;3.50;;;5.10;99.90;;;;;;4987409;28;20453;-81
2022/01/24 12:46:19;;;;;;;3.83;3.53;;;5.30;99.90;;;;;;5016658;28;20471;-81
2022/01/24 12:49:07;;;;;;;3.23;2.93;;;5.40;99.90;;;;;;4994222;28;20413;-80
2022/01/24 12:51:52;;;;;;;3.33;2.90;;;5.30;99.90;;;;;;5004162;28;20425;-81
2022/01/24 12:54:41;;;;;;;3.33;3.03;;;5.30;99.90;;;;;;5005748;28;20445;-80
2022/01/24 12:57:32;;;;;;;4.37;3.97;;;5.30;99.90;;;;;;5019504;28;20391;-80
2022/01/24 13:00:18;;;;;;;4.87;3.43;;;5.50;99.90;;;;;;5011140;28;20664;-78
2022/01/24 13:03:03;;;;;;;5.50;3.80;;;5.40;99.90;;;;;;5002699;28;20390;-80
2022/01/24 13:05:47;;;;;;;5.60;4.70;;;5.60;99.90;;;;;;4988658;28;20390;-79
2022/01/24 13:08:32;;;;;;;3.20;2.90;;;5.50;99.90;;;;;;4984608;28;20427;-79
2022/01/24 13:11:17;;;;;;;5.23;3.53;;;5.60;99.90;;;;;;5018548;28;20451;-80
2022/01/24 13:14:10;;;;;;;3.50;3.10;;;5.40;99.90;;;;;;5019604;28;20496;-79
2022/01/24 13:23:00;;;;;;;7.03;3.40;;;5.60;99.90;;;;;;5016695;28;20950;-79
2022/01/24 13:25:46;;;;;;;3.10;2.90;;;5.30;99.90;;;;;;5004967;28;20906;-79
2022/01/24 13:28:30;;;;;;;3.60;3.27;;;5.30;99.90;;;;;;5006301;28;20390;-79
2022/01/24 13:31:15;;;;;;;4.57;4.10;;;5.50;99.90;;;;;;5005875;28;20533;-80
2022/01/24 13:34:03;;;;;;;5.23;4.73;;;5.50;99.90;;;;;;4990129;28;20379;-79
2022/01/24 13:36:47;;;;;;;12.47;5.43;;;5.50;99.90;;;;;;5004532;28;20910;-79
2022/01/24 13:39:32;;;;;;;5.20;4.23;;;5.50;99.90;;;;;;5022961;28;20399;-80
2022/01/24 13:42:18;;;;;;;3.90;3.40;;;5.40;99.90;;;;;;5025236;28;20431;-80
2022/01/24 13:45:05;;;;;;;4.23;3.53;;;5.20;99.90;;;;;;5009048;28;20390;-80
2022/01/24 13:47:57;;;;;;;3.03;2.83;;;5.40;99.90;;;;;;5027494;28;20930;-79
2022/01/24 13:50:50;;;;;;;3.20;2.90;;;5.30;99.90;;;;;;5011531;28;20429;-79
2022/01/24 13:53:39;;;;;;;3.67;2.77;;;5.40;99.90;;;;;;5008778;28;20458;-80
2022/01/24 13:56:34;;;;;;;7.40;3.97;;;5.40;99.90;;;;;;5026782;28;20406;-80
2022/01/24 13:59:21;;;;;;;7.60;4.53;;;5.50;99.90;;;;;;5023657;28;20374;-80
2022/01/24 14:02:41;;;;;;;9.60;3.30;;;5.60;99.90;;;;;;4976837;28;1063524;-80
2022/01/24 14:05:25;;;;;;;7.23;3.10;;;5.60;99.90;;;;;;4993144;28;20212;-79
2022/01/24 14:08:15;;;;;;;3.43;3.13;;;5.40;99.90;;;;;;4976724;28;20420;-80
2022/01/24 14:11:13;;;;;;;12.80;4.00;;;5.50;99.90;;;;;;4990569;28;20419;-80
2022/01/24 14:14:04;;;;;;;6.50;3.80;;;5.60;99.90;;;;;;4975531;28;20403;-80
2022/01/24 14:16:58;;;;;;;5.93;3.70;;;5.70;99.90;;;;;;4986725;28;20505;-80
2022/01/24 14:19:43;;;;;;;4.03;3.17;;;5.60;99.90;;;;;;4988707;28;20416;-80
2022/01/24 14:22:47;;;;;;;4.60;3.50;;;5.40;99.90;;;;;;4993427;28;20423;-80
2022/01/24 14:25:33;;;;;;;5.73;4.67;;;5.50;99.90;;;;;;4989072;28;20412;-80
2022/01/24 14:28:22;;;;;;;5.77;4.13;;;5.50;99.90;;;;;;4977280;28;20421;-80
2022/01/24 14:31:15;;;;;;;7.57;5.67;;;5.40;99.90;;;;;;4988010;28;20439;-79
2022/01/24 14:34:16;;;;;;;7.60;3.90;;;5.50;99.90;;;;;;4971255;29;20434;-79
2022/01/24 14:37:05;;;;;;;4.27;3.37;;;5.40;99.90;;;;;;4983027;28;20438;-79
2022/01/24 14:39:49;;;;;;;4.80;3.57;;;5.30;99.90;;;;;;4988234;28;20417;-80
2022/01/24 14:42:45;;;;;;;5.90;3.93;;;5.20;99.90;;;;;;4960093;28;20447;-79
2022/01/24 14:45:30;;;;;;;3.90;3.50;;;5.20;99.90;;;;;;4953642;28;20396;-79
2022/01/24 14:48:14;;;;;;;3.70;3.40;;;5.10;99.90;;;;;;4962297;28;20441;-79
2022/01/24 14:50:59;;;;;;;3.70;3.40;;;5.30;99.90;;;;;;4959169;28;20525;-79
2022/01/24 14:53:44;;;;;;;10.10;3.37;;;5.10;99.90;;;;;;4976142;28;20493;-79
2022/01/24 14:56:31;;;;;;;3.30;3.00;;;5.30;99.90;;;;;;4963544;28;20443;-81
2022/01/24 14:59:15;;;;;;;5.40;3.63;;;5.10;99.90;;;;;;4963392;28;20424;-80
2022/01/24 15:02:01;;;;;;;3.90;3.50;;;5.10;99.90;;;;;;4987662;28;20446;-81
2022/01/24 15:04:45;;;;;;;5.30;3.10;;;5.10;99.90;;;;;;4983524;28;20627;-80
2022/01/24 15:07:30;;;;;;;5.57;3.90;;;5.20;99.90;;;;;;5004304;28;20402;-80
2022/01/24 15:10:15;;;;;;;4.80;4.33;;;5.20;99.90;;;;;;5003321;28;20996;-81
2022/01/24 15:13:04;;;;;;;5.67;4.13;;;5.10;99.90;;;;;;5017144;28;20780;-79
2022/01/24 15:16:00;;;;;;;4.43;4.00;;;5.10;99.90;;;;;;5017849;28;20397;-79
2022/01/24 15:25:20;;;;;;;4.47;3.47;;;5.20;99.90;;;;;;5023348;28;20428;-80
2022/01/24 15:27:51;;;;;;;4.17;3.77;;;5.20;99.90;;;;;;5018164;28;20478;-78
2022/01/24 15:30:35;;;;;;;4.33;3.90;;;5.30;99.90;;;;;;5004486;28;20837;-80
2022/01/24 15:33:21;;;;;;;5.73;4.60;;;5.40;99.90;;;;;;5002157;28;20402;-81
2022/01/24 15:36:05;;;;;;;8.10;4.27;;;5.40;99.90;;;;;;4985871;28;20378;-83
2022/01/24 15:38:51;;;;;;;7.70;5.17;;;5.50;99.90;;;;;;5002232;28;20432;-82
2022/01/24 15:41:46;;;;;;;3.87;3.57;;;5.40;99.90;;;;;;5008431;28;20401;-83
2022/01/24 15:44:35;;;;;;;5.97;4.23;;;5.20;99.90;;;;;;5018998;28;20402;-82
2022/01/24 15:47:32;;;;;;;5.10;4.60;;;5.10;99.90;;;;;;4993296;28;20390;-83
2022/01/24 15:50:19;;;;;;;6.10;3.80;;;5.20;99.90;;;;;;5008336;28;20517;-81
2022/01/24 15:53:07;;;;;;;5.87;4.97;;;5.20;99.90;;;;;;5005601;28;20402;-81
2022/01/24 15:58:56;;;;;;;7.57;4.13;;;5.20;99.90;;;;;;5015147;28;20570;-80
2022/01/24 16:01:41;;;;;;;3.60;3.30;;;5.10;99.90;;;;;;5017114;28;20970;-80
2022/01/24 16:04:25;;;;;;;6.50;4.80;;;5.10;99.90;;;;;;5015458;28;20389;-79
2022/01/24 16:07:09;;;;;;;10.67;5.20;;;5.10;99.90;;;;;;5000520;28;20407;-79
2022/01/24 16:09:57;;;;;;;6.97;4.90;;;5.00;99.90;;;;;;5016763;28;20430;-82
2022/01/24 16:12:44;;;;;;;9.67;4.40;;;5.00;99.90;;;;;;5015535;28;20402;-82
2022/01/24 16:15:31;;;;;;;5.20;4.70;;;5.10;99.90;;;;;;4996568;28;20450;-82
2022/01/24 16:18:18;;;;;;;7.27;4.00;;;5.00;99.90;;;;;;5004432;28;20389;-80
2022/01/24 16:21:15;;;;;;;4.07;3.73;;;5.00;99.90;;;;;;5019754;28;20408;-80
2022/01/24 16:26:57;;;;;;;5.30;4.80;;;5.20;99.90;;;;;;5009739;28;20439;-80